sensor_id;sensor_type;location;lat;lon;timestamp;pressure;altitude;pressure_sealevel;temperature;humidity
13954;BME280;7049;49.444;8.522;2023-06-10T00:04:43;-11160.47;;;-3.47;52.32
13954;BME280;7049;49.444;8.522;2023-06-10T00:09:48;-11160.47;;;-3.47;53.09
13954;BME280;7049;49.444;8.522;2023-06-10T00:14:56;-11160.47;;;-3.47;53.50
13954;BME280;7049;49.444;8.522;2023-06-10T00:20:01;-11160.47;;;-3.47;53.75
13954;BME280;7049;49.444;8.522;2023-06-10T00:25:10;-11160.47;;;-3.47;54.51
13954;BME280;7049;49.444;8.522;2023-06-10T00:30:17;-11160.47;;;-3.47;54.65
13954;BME280;7049;49.444;8.522;2023-06-10T00:35:22;-11160.47;;;-3.47;54.61
13954;BME280;7049;49.444;8.522;2023-06-10T00:40:24;-11160.47;;;-3.47;55.45
13954;BME280;7049;49.444;8.522;2023-06-10T00:45:32;-11160.47;;;-3.47;55.63
13954;BME280;7049;49.444;8.522;2023-06-10T00:50:34;-11160.47;;;-3.47;55.73
13954;BME280;7049;49.444;8.522;2023-06-10T00:55:41;-11160.47;;;-3.47;56.89
13954;BME280;7049;49.444;8.522;2023-06-10T01:00:45;-11160.47;;;-3.47;57.41
13954;BME280;7049;49.444;8.522;2023-06-10T01:05:50;-11160.47;;;-3.47;57.40
13954;BME280;7049;49.444;8.522;2023-06-10T01:10:59;-11160.47;;;-3.47;58.02
13954;BME280;7049;49.444;8.522;2023-06-10T01:16:04;-11160.47;;;-3.47;57.72
13954;BME280;7049;49.444;8.522;2023-06-10T01:21:07;-11160.47;;;-3.47;55.62
13954;BME280;7049;49.444;8.522;2023-06-10T01:26:11;-11160.47;;;-3.47;55.11
13954;BME280;7049;49.444;8.522;2023-06-10T01:31:17;-11160.47;;;-3.47;54.37
13954;BME280;7049;49.444;8.522;2023-06-10T01:36:22;-11160.47;;;-3.47;54.21
13954;BME280;7049;49.444;8.522;2023-06-10T01:41:26;-11160.47;;;-3.47;53.57
13954;BME280;7049;49.444;8.522;2023-06-10T01:46:28;-11160.47;;;-3.47;53.80
13954;BME280;7049;49.444;8.522;2023-06-10T01:51:29;-11160.47;;;-3.47;54.20
13954;BME280;7049;49.444;8.522;2023-06-10T01:56:33;-11160.47;;;-3.47;54.68
13954;BME280;7049;49.444;8.522;2023-06-10T02:01:36;-11160.47;;;-3.47;55.02
13954;BME280;7049;49.444;8.522;2023-06-10T02:06:38;-11160.47;;;-3.47;54.55
13954;BME280;7049;49.444;8.522;2023-06-10T02:11:40;-11160.47;;;-3.47;55.16
13954;BME280;7049;49.444;8.522;2023-06-10T02:16:42;-11160.47;;;-3.47;55.97
13954;BME280;7049;49.444;8.522;2023-06-10T02:21:46;-11160.47;;;-3.47;56.05
13954;BME280;7049;49.444;8.522;2023-06-10T02:26:49;-11160.47;;;-3.47;56.45
13954;BME280;7049;49.444;8.522;2023-06-10T02:31:52;-11160.47;;;-3.47;56.88
13954;BME280;7049;49.444;8.522;2023-06-10T02:36:53;-11160.47;;;-3.47;56.33
13954;BME280;7049;49.444;8.522;2023-06-10T02:41:56;-11160.47;;;-3.47;56.90
13954;BME280;7049;49.444;8.522;2023-06-10T02:46:58;-11160.47;;;-3.47;57.86
13954;BME280;7049;49.444;8.522;2023-06-10T02:51:59;-11160.47;;;-3.47;58.42
13954;BME280;7049;49.444;8.522;2023-06-10T02:57:03;-11160.47;;;-3.47;58.65
13954;BME280;7049;49.444;8.522;2023-06-10T03:02:05;-11160.47;;;-3.47;58.89
13954;BME280;7049;49.444;8.522;2023-06-10T03:07:07;-11160.47;;;-3.47;59.86
13954;BME280;7049;49.444;8.522;2023-06-10T03:12:10;-11160.47;;;-3.47;59.59
13954;BME280;7049;49.444;8.522;2023-06-10T03:17:12;-11160.47;;;-3.47;59.72
13954;BME280;7049;49.444;8.522;2023-06-10T03:22:14;-11160.47;;;-3.47;59.80
13954;BME280;7049;49.444;8.522;2023-06-10T03:27:17;-11160.47;;;-3.47;60.26
13954;BME280;7049;49.444;8.522;2023-06-10T03:32:19;-11160.47;;;-3.47;59.94
13954;BME280;7049;49.444;8.522;2023-06-10T03:37:20;-11160.47;;;-3.47;59.92
13954;BME280;7049;49.444;8.522;2023-06-10T03:42:23;-11160.47;;;-3.47;60.83
13954;BME280;7049;49.444;8.522;2023-06-10T03:47:25;-11160.47;;;-3.47;61.73
13954;BME280;7049;49.444;8.522;2023-06-10T03:52:26;-11160.47;;;-3.47;62.11
13954;BME280;7049;49.444;8.522;2023-06-10T03:57:29;-11160.47;;;-3.47;62.39
13954;BME280;7049;49.444;8.522;2023-06-10T04:02:30;-11160.47;;;-3.47;63.61
13954;BME280;7049;49.444;8.522;2023-06-10T04:07:33;-11160.47;;;-3.47;63.23
13954;BME280;7049;49.444;8.522;2023-06-10T04:12:36;-11160.47;;;-3.47;63.48
13954;BME280;7049;49.444;8.522;2023-06-10T04:17:37;-11160.47;;;-3.47;63.56
13954;BME280;7049;49.444;8.522;2023-06-10T04:22:39;-11160.47;;;-3.47;63.88
13954;BME280;7049;49.444;8.522;2023-06-10T04:27:41;-11160.47;;;-3.47;63.95
13954;BME280;7049;49.444;8.522;2023-06-10T04:32:44;-11160.47;;;-3.47;65.05
13954;BME280;7049;49.444;8.522;2023-06-10T04:37:45;-11160.47;;;-3.47;64.16
13954;BME280;7049;49.444;8.522;2023-06-10T04:42:48;-11160.47;;;-3.47;63.88
13954;BME280;7049;49.444;8.522;2023-06-10T04:47:50;-11160.47;;;-3.47;63.20
13954;BME280;7049;49.444;8.522;2023-06-10T04:52:51;-11160.47;;;-3.47;63.96
13954;BME280;7049;49.444;8.522;2023-06-10T04:57:54;-11160.47;;;-3.47;64.03
13954;BME280;7049;49.444;8.522;2023-06-10T05:02:56;-11160.47;;;-3.47;63.47
13954;BME280;7049;49.444;8.522;2023-06-10T05:08:00;-11160.47;;;-3.47;63.36
13954;BME280;7049;49.444;8.522;2023-06-10T05:13:03;-11160.47;;;-3.47;62.52
13954;BME280;7049;49.444;8.522;2023-06-10T05:18:05;-11160.47;;;-3.47;61.95
13954;BME280;7049;49.444;8.522;2023-06-10T05:23:06;-11160.47;;;-3.47;61.32
13954;BME280;7049;49.444;8.522;2023-06-10T05:28:09;-11160.47;;;-3.47;60.88
13954;BME280;7049;49.444;8.522;2023-06-10T05:33:11;-11160.47;;;-3.47;60.33
13954;BME280;7049;49.444;8.522;2023-06-10T05:38:12;-11160.47;;;-3.47;60.69
13954;BME280;7049;49.444;8.522;2023-06-10T05:43:15;-11160.47;;;-3.47;60.81
13954;BME280;7049;49.444;8.522;2023-06-10T05:48:17;-11160.47;;;-3.47;60.63
13954;BME280;7049;49.444;8.522;2023-06-10T05:53:21;-11160.47;;;-3.47;59.61
13954;BME280;7049;49.444;8.522;2023-06-10T05:58:24;-11160.47;;;-3.47;59.74
13954;BME280;7049;49.444;8.522;2023-06-10T06:03:26;-11160.47;;;-3.47;59.09
13954;BME280;7049;49.444;8.522;2023-06-10T06:08:29;-11160.47;;;-3.47;56.61
13954;BME280;7049;49.444;8.522;2023-06-10T06:13:32;-11160.47;;;-3.47;55.58
13954;BME280;7049;49.444;8.522;2023-06-10T06:18:33;-11160.47;;;-3.47;54.86
13954;BME280;7049;49.444;8.522;2023-06-10T06:23:35;-11160.47;;;-3.47;53.85
13954;BME280;7049;49.444;8.522;2023-06-10T06:28:37;-11160.47;;;-3.47;52.19
13954;BME280;7049;49.444;8.522;2023-06-10T06:33:41;-11160.47;;;-3.47;50.55
13954;BME280;7049;49.444;8.522;2023-06-10T06:38:43;-11160.47;;;-3.47;50.21
13954;BME280;7049;49.444;8.522;2023-06-10T06:43:46;-11160.47;;;-3.47;47.81
13954;BME280;7049;49.444;8.522;2023-06-10T06:48:47;-11160.47;;;-3.47;46.42
13954;BME280;7049;49.444;8.522;2023-06-10T06:53:49;-11160.47;;;-3.47;45.50
13954;BME280;7049;49.444;8.522;2023-06-10T06:58:52;-11160.47;;;-3.47;44.74
13954;BME280;7049;49.444;8.522;2023-06-10T07:03:54;-11160.47;;;-3.47;42.22
13954;BME280;7049;49.444;8.522;2023-06-10T07:08:55;-11160.47;;;-3.47;41.18
13954;BME280;7049;49.444;8.522;2023-06-10T07:13:58;-11160.47;;;-3.47;40.21
13954;BME280;7049;49.444;8.522;2023-06-10T07:19:00;-11160.47;;;-3.47;39.32
13954;BME280;7049;49.444;8.522;2023-06-10T07:24:04;-11160.47;;;-3.47;39.50
13954;BME280;7049;49.444;8.522;2023-06-10T07:29:07;-11160.47;;;-3.47;37.55
13954;BME280;7049;49.444;8.522;2023-06-10T07:34:09;-11160.47;;;-3.47;36.61
13954;BME280;7049;49.444;8.522;2023-06-10T07:39:10;-11160.47;;;-3.47;35.78
13954;BME280;7049;49.444;8.522;2023-06-10T07:44:13;-11160.47;;;-3.47;36.05
13954;BME280;7049;49.444;8.522;2023-06-10T07:49:15;-11160.47;;;-3.47;35.94
13954;BME280;7049;49.444;8.522;2023-06-10T07:54:16;-11160.47;;;-3.47;34.73
13954;BME280;7049;49.444;8.522;2023-06-10T07:59:19;-11160.47;;;-3.47;35.04
13954;BME280;7049;49.444;8.522;2023-06-10T08:04:21;-11160.47;;;-3.47;35.13
13954;BME280;7049;49.444;8.522;2023-06-10T08:09:22;-11160.47;;;-3.47;34.77
13954;BME280;7049;49.444;8.522;2023-06-10T08:14:25;-11160.47;;;-3.47;34.19
13954;BME280;7049;49.444;8.522;2023-06-10T08:19:27;-11160.47;;;-3.47;32.55
13954;BME280;7049;49.444;8.522;2023-06-10T08:24:28;-11160.47;;;-3.47;32.08
13954;BME280;7049;49.444;8.522;2023-06-10T08:29:31;-11160.47;;;-3.47;32.75
13954;BME280;7049;49.444;8.522;2023-06-10T08:34:34;-11160.47;;;-3.47;32.89
13954;BME280;7049;49.444;8.522;2023-06-10T08:39:36;-11160.47;;;-3.47;32.23
13954;BME280;7049;49.444;8.522;2023-06-10T08:44:39;-11160.47;;;-3.47;32.15
13954;BME280;7049;49.444;8.522;2023-06-10T08:49:43;-11160.47;;;-3.47;31.85
13954;BME280;7049;49.444;8.522;2023-06-10T08:54:56;-11160.47;;;-3.47;32.06
13954;BME280;7049;49.444;8.522;2023-06-10T09:00:00;-11160.47;;;-3.47;31.60
13954;BME280;7049;49.444;8.522;2023-06-10T09:05:03;-11160.47;;;-3.47;31.54
13954;BME280;7049;49.444;8.522;2023-06-10T09:10:09;-11160.47;;;-3.47;31.06
13954;BME280;7049;49.444;8.522;2023-06-10T09:15:12;-11160.47;;;-3.47;31.01
13954;BME280;7049;49.444;8.522;2023-06-10T09:20:14;-11160.47;;;-3.47;30.53
13954;BME280;7049;49.444;8.522;2023-06-10T09:25:16;-11160.47;;;-3.47;30.31
13954;BME280;7049;49.444;8.522;2023-06-10T09:30:26;-11160.47;;;-3.47;30.49
13954;BME280;7049;49.444;8.522;2023-06-10T09:35:29;-11160.47;;;-3.47;30.00
13954;BME280;7049;49.444;8.522;2023-06-10T09:40:31;-11160.47;;;-3.47;29.75
13954;BME280;7049;49.444;8.522;2023-06-10T09:45:34;-11160.47;;;-3.47;29.72
13954;BME280;7049;49.444;8.522;2023-06-10T09:50:41;-11160.47;;;-3.47;28.88
13954;BME280;7049;49.444;8.522;2023-06-10T09:55:44;-11160.47;;;-3.47;28.95
13954;BME280;7049;49.444;8.522;2023-06-10T10:00:52;-11160.47;;;-3.47;30.47
13954;BME280;7049;49.444;8.522;2023-06-10T10:05:58;-11160.47;;;-3.47;29.46
13954;BME280;7049;49.444;8.522;2023-06-10T10:11:01;-11160.47;;;-3.47;28.92
13954;BME280;7049;49.444;8.522;2023-06-10T10:16:09;-11160.47;;;-3.47;29.57
13954;BME280;7049;49.444;8.522;2023-06-10T10:21:13;-11160.47;;;-3.47;29.25
13954;BME280;7049;49.444;8.522;2023-06-10T10:26:16;-11160.47;;;-3.47;26.59
13954;BME280;7049;49.444;8.522;2023-06-10T10:31:21;-11160.47;;;-3.47;26.44
13954;BME280;7049;49.444;8.522;2023-06-10T10:36:23;-11160.47;;;-3.47;26.75
13954;BME280;7049;49.444;8.522;2023-06-10T10:41:25;-11160.47;;;-3.47;26.35
13954;BME280;7049;49.444;8.522;2023-06-10T10:46:29;-11160.47;;;-3.47;26.10
13954;BME280;7049;49.444;8.522;2023-06-10T10:51:33;-11160.47;;;-3.47;25.46
13954;BME280;7049;49.444;8.522;2023-06-10T10:56:35;-11160.47;;;-3.47;26.27
13954;BME280;7049;49.444;8.522;2023-06-10T11:01:41;-11160.47;;;-3.47;25.85
13954;BME280;7049;49.444;8.522;2023-06-10T11:06:52;-11160.47;;;-3.47;24.79
13954;BME280;7049;49.444;8.522;2023-06-10T11:11:56;-11160.47;;;-3.47;25.51
13954;BME280;7049;49.444;8.522;2023-06-10T11:16:59;-11160.47;;;-3.47;25.21
13954;BME280;7049;49.444;8.522;2023-06-10T11:22:01;-11160.47;;;-3.47;24.49
13954;BME280;7049;49.444;8.522;2023-06-10T11:27:17;-11160.47;;;-3.47;24.82
13954;BME280;7049;49.444;8.522;2023-06-10T11:32:20;-11160.47;;;-3.47;24.79
13954;BME280;7049;49.444;8.522;2023-06-10T11:37:22;-11160.47;;;-3.47;25.04
13954;BME280;7049;49.444;8.522;2023-06-10T11:42:24;-11160.47;;;-3.47;24.87
13954;BME280;7049;49.444;8.522;2023-06-10T11:47:27;-11160.47;;;-3.47;25.19
13954;BME280;7049;49.444;8.522;2023-06-10T11:52:29;-11160.47;;;-3.47;24.96
13954;BME280;7049;49.444;8.522;2023-06-10T11:57:33;-11160.47;;;-3.47;25.36
13954;BME280;7049;49.444;8.522;2023-06-10T12:02:36;-11160.47;;;-3.47;25.79
13954;BME280;7049;49.444;8.522;2023-06-10T12:07:38;-11160.47;;;-3.47;25.37
13954;BME280;7049;49.444;8.522;2023-06-10T12:12:39;-11160.47;;;-3.47;25.51
13954;BME280;7049;49.444;8.522;2023-06-10T12:17:43;-11160.47;;;-3.47;26.03
13954;BME280;7049;49.444;8.522;2023-06-10T12:22:44;-11160.47;;;-3.47;25.75
13954;BME280;7049;49.444;8.522;2023-06-10T12:27:50;-11160.47;;;-3.47;25.34
13954;BME280;7049;49.444;8.522;2023-06-10T12:32:55;-11160.47;;;-3.47;25.09
13954;BME280;7049;49.444;8.522;2023-06-10T12:37:58;-11160.47;;;-3.47;25.53
13954;BME280;7049;49.444;8.522;2023-06-10T12:43:01;-11160.47;;;-3.47;25.33
13954;BME280;7049;49.444;8.522;2023-06-10T12:48:09;-11160.47;;;-3.47;25.35
13954;BME280;7049;49.444;8.522;2023-06-10T12:53:11;-11160.47;;;-3.47;25.00
13954;BME280;7049;49.444;8.522;2023-06-10T12:58:13;-11160.47;;;-3.47;25.37
13954;BME280;7049;49.444;8.522;2023-06-10T13:03:16;-11160.47;;;-3.47;25.45
13954;BME280;7049;49.444;8.522;2023-06-10T13:08:17;-11160.47;;;-3.47;25.21
13954;BME280;7049;49.444;8.522;2023-06-10T13:13:19;-11160.47;;;-3.47;25.46
13954;BME280;7049;49.444;8.522;2023-06-10T13:18:22;-11160.47;;;-3.47;25.94
13954;BME280;7049;49.444;8.522;2023-06-10T13:23:24;-11160.47;;;-3.47;25.28
13954;BME280;7049;49.444;8.522;2023-06-10T13:28:25;-11160.47;;;-3.47;25.11
13954;BME280;7049;49.444;8.522;2023-06-10T13:33:28;-11160.47;;;-3.47;25.75
13954;BME280;7049;49.444;8.522;2023-06-10T13:38:30;-11160.47;;;-3.47;25.31
13954;BME280;7049;49.444;8.522;2023-06-10T13:43:31;-11160.47;;;-3.47;25.03
13954;BME280;7049;49.444;8.522;2023-06-10T13:48:34;-11160.47;;;-3.47;24.53
13954;BME280;7049;49.444;8.522;2023-06-10T13:53:36;-11160.47;;;-3.47;24.72
13954;BME280;7049;49.444;8.522;2023-06-10T13:58:38;-11160.47;;;-3.47;24.92
13954;BME280;7049;49.444;8.522;2023-06-10T14:03:48;-11160.47;;;-3.47;25.49
13954;BME280;7049;49.444;8.522;2023-06-10T14:08:50;-11160.47;;;-3.47;24.29
13954;BME280;7049;49.444;8.522;2023-06-10T14:13:51;-11160.47;;;-3.47;24.01
13954;BME280;7049;49.444;8.522;2023-06-10T14:18:54;-11160.47;;;-3.47;24.50
13954;BME280;7049;49.444;8.522;2023-06-10T14:23:56;-11160.47;;;-3.47;24.61
13954;BME280;7049;49.444;8.522;2023-06-10T14:28:58;-11160.47;;;-3.47;25.22
13954;BME280;7049;49.444;8.522;2023-06-10T14:34:01;-11160.47;;;-3.47;26.24
13954;BME280;7049;49.444;8.522;2023-06-10T14:39:02;-11160.47;;;-3.47;26.44
13954;BME280;7049;49.444;8.522;2023-06-10T14:44:04;-11160.47;;;-3.47;25.86
13954;BME280;7049;49.444;8.522;2023-06-10T14:49:07;-11160.47;;;-3.47;25.20
13954;BME280;7049;49.444;8.522;2023-06-10T14:54:09;-11160.47;;;-3.47;25.26
13954;BME280;7049;49.444;8.522;2023-06-10T14:59:10;-11160.47;;;-3.47;24.91
13954;BME280;7049;49.444;8.522;2023-06-10T15:04:13;-11160.47;;;-3.47;24.36
13954;BME280;7049;49.444;8.522;2023-06-10T15:09:15;-11160.47;;;-3.47;24.24
13954;BME280;7049;49.444;8.522;2023-06-10T15:14:17;-11160.47;;;-3.47;24.37
13954;BME280;7049;49.444;8.522;2023-06-10T15:19:20;-11160.47;;;-3.47;23.95
13954;BME280;7049;49.444;8.522;2023-06-10T15:24:21;-11160.47;;;-3.47;24.42
13954;BME280;7049;49.444;8.522;2023-06-10T15:29:23;-11160.47;;;-3.47;24.24
13954;BME280;7049;49.444;8.522;2023-06-10T15:34:25;-11160.47;;;-3.47;nan
13954;BME280;7049;49.444;8.522;2023-06-10T15:39:27;-11160.47;;;-3.47;23.40
13954;BME280;7049;49.444;8.522;2023-06-10T15:44:30;-11160.47;;;-3.47;23.52
13954;BME280;7049;49.444;8.522;2023-06-10T15:49:33;-11160.47;;;-3.47;23.68
13954;BME280;7049;49.444;8.522;2023-06-10T15:54:34;-11160.47;;;-3.47;23.96
13954;BME280;7049;49.444;8.522;2023-06-10T15:59:36;-11160.47;;;-3.47;23.36
13954;BME280;7049;49.444;8.522;2023-06-10T16:04:39;-11160.47;;;-3.47;24.17
13954;BME280;7049;49.444;8.522;2023-06-10T16:09:40;-11160.47;;;-3.47;23.90
13954;BME280;7049;49.444;8.522;2023-06-10T16:14:42;-11160.47;;;-3.47;23.32
13954;BME280;7049;49.444;8.522;2023-06-10T16:19:45;-11160.47;;;-3.47;23.79
13954;BME280;7049;49.444;8.522;2023-06-10T16:24:46;-11160.47;;;-3.47;23.89
13954;BME280;7049;49.444;8.522;2023-06-10T16:29:52;-11160.47;;;-3.47;23.95
13954;BME280;7049;49.444;8.522;2023-06-10T16:34:56;-11160.47;;;-3.47;23.96
13954;BME280;7049;49.444;8.522;2023-06-10T16:39:57;-11160.47;;;-3.47;24.01
13954;BME280;7049;49.444;8.522;2023-06-10T16:44:59;-11160.47;;;-3.47;24.19
13954;BME280;7049;49.444;8.522;2023-06-10T16:50:02;-11160.47;;;-3.47;23.87
13954;BME280;7049;49.444;8.522;2023-06-10T16:55:05;-11160.47;;;-3.47;24.17
13954;BME280;7049;49.444;8.522;2023-06-10T17:00:07;-11160.47;;;-3.47;24.93
13954;BME280;7049;49.444;8.522;2023-06-10T17:05:11;-11160.47;;;-3.47;25.22
13954;BME280;7049;49.444;8.522;2023-06-10T17:10:13;-11160.47;;;-3.47;25.24
13954;BME280;7049;49.444;8.522;2023-06-10T17:15:15;-11160.47;;;-3.47;25.08
13954;BME280;7049;49.444;8.522;2023-06-10T17:20:18;-11160.47;;;-3.47;25.24
13954;BME280;7049;49.444;8.522;2023-06-10T17:25:23;-11160.47;;;-3.47;25.38
13954;BME280;7049;49.444;8.522;2023-06-10T17:30:34;-11160.47;;;-3.47;25.53
13954;BME280;7049;49.444;8.522;2023-06-10T17:35:37;-11160.47;;;-3.47;25.77
13954;BME280;7049;49.444;8.522;2023-06-10T17:40:41;-11160.47;;;-3.47;26.08
13954;BME280;7049;49.444;8.522;2023-06-10T17:45:48;-11160.47;;;-3.47;26.07
13954;BME280;7049;49.444;8.522;2023-06-10T17:51:00;-11160.47;;;-3.47;26.28
13954;BME280;7049;49.444;8.522;2023-06-10T17:56:04;-11160.47;;;-3.47;26.67
13954;BME280;7049;49.444;8.522;2023-06-10T18:01:08;-11160.47;;;-3.47;26.86
13954;BME280;7049;49.444;8.522;2023-06-10T18:06:14;-11160.47;;;-3.47;27.03
13954;BME280;7049;49.444;8.522;2023-06-10T18:11:20;-11160.47;;;-3.47;27.72
13954;BME280;7049;49.444;8.522;2023-06-10T18:16:26;-11160.47;;;-3.47;28.00
13954;BME280;7049;49.444;8.522;2023-06-10T18:21:37;-11160.47;;;-3.47;27.90
13954;BME280;7049;49.444;8.522;2023-06-10T18:26:41;-11160.47;;;-3.47;28.22
13954;BME280;7049;49.444;8.522;2023-06-10T18:31:54;-11160.47;;;-3.47;28.45
13954;BME280;7049;49.444;8.522;2023-06-10T18:36:57;-11160.47;;;-3.47;29.10
13954;BME280;7049;49.444;8.522;2023-06-10T18:41:59;-11160.47;;;-3.47;29.57
13954;BME280;7049;49.444;8.522;2023-06-10T18:47:01;-11160.47;;;-3.47;30.00
13954;BME280;7049;49.444;8.522;2023-06-10T18:52:07;-11160.47;;;-3.47;30.54
13954;BME280;7049;49.444;8.522;2023-06-10T18:57:12;-11160.47;;;-3.47;30.65
13954;BME280;7049;49.444;8.522;2023-06-10T19:02:13;-11160.47;;;-3.47;30.86
13954;BME280;7049;49.444;8.522;2023-06-10T19:07:16;-11160.47;;;-3.47;31.58
13954;BME280;7049;49.444;8.522;2023-06-10T19:12:18;-11160.47;;;-3.47;31.54
13954;BME280;7049;49.444;8.522;2023-06-10T19:17:21;-11160.47;;;-3.47;32.03
13954;BME280;7049;49.444;8.522;2023-06-10T19:22:24;-11160.47;;;-3.47;32.18
13954;BME280;7049;49.444;8.522;2023-06-10T19:27:26;-11160.47;;;-3.47;32.65
13954;BME280;7049;49.444;8.522;2023-06-10T19:32:27;-11160.47;;;-3.47;32.56
13954;BME280;7049;49.444;8.522;2023-06-10T19:37:30;-11160.47;;;-3.47;32.98
13954;BME280;7049;49.444;8.522;2023-06-10T19:42:32;-11160.47;;;-3.47;32.94
13954;BME280;7049;49.444;8.522;2023-06-10T19:47:37;-11160.47;;;-3.47;33.12
13954;BME280;7049;49.444;8.522;2023-06-10T19:52:40;-11160.47;;;-3.47;33.75
13954;BME280;7049;49.444;8.522;2023-06-10T19:57:41;-11160.47;;;-3.47;33.73
13954;BME280;7049;49.444;8.522;2023-06-10T20:02:43;-11160.47;;;-3.47;34.28
13954;BME280;7049;49.444;8.522;2023-06-10T20:07:45;-11160.47;;;-3.47;34.65
13954;BME280;7049;49.444;8.522;2023-06-10T20:12:47;-11160.47;;;-3.47;35.16
13954;BME280;7049;49.444;8.522;2023-06-10T20:17:48;-11160.47;;;-3.47;35.71
13954;BME280;7049;49.444;8.522;2023-06-10T20:22:53;-11160.47;;;-3.47;35.51
13954;BME280;7049;49.444;8.522;2023-06-10T20:27:55;-11160.47;;;-3.47;35.87
13954;BME280;7049;49.444;8.522;2023-06-10T20:32:57;-11160.47;;;-3.47;36.89
13954;BME280;7049;49.444;8.522;2023-06-10T20:38:00;-11160.47;;;-3.47;37.27
13954;BME280;7049;49.444;8.522;2023-06-10T20:43:01;-11160.47;;;-3.47;38.12
13954;BME280;7049;49.444;8.522;2023-06-10T20:48:03;-11160.47;;;-3.47;38.53
13954;BME280;7049;49.444;8.522;2023-06-10T20:53:06;-11160.47;;;-3.47;38.89
13954;BME280;7049;49.444;8.522;2023-06-10T20:58:07;-11160.47;;;-3.47;38.92
13954;BME280;7049;49.444;8.522;2023-06-10T21:03:09;-11160.47;;;-3.47;38.85
13954;BME280;7049;49.444;8.522;2023-06-10T21:08:11;-11160.47;;;-3.47;38.59
13954;BME280;7049;49.444;8.522;2023-06-10T21:13:14;-11160.47;;;-3.47;38.72
13954;BME280;7049;49.444;8.522;2023-06-10T21:18:16;-11160.47;;;-3.47;39.27
13954;BME280;7049;49.444;8.522;2023-06-10T21:23:18;-11160.47;;;-3.47;39.51
13954;BME280;7049;49.444;8.522;2023-06-10T21:28:20;-11160.47;;;-3.47;39.93
13954;BME280;7049;49.444;8.522;2023-06-10T21:33:22;-11160.47;;;-3.47;39.06
13954;BME280;7049;49.444;8.522;2023-06-10T21:38:25;-11160.47;;;-3.47;39.19
13954;BME280;7049;49.444;8.522;2023-06-10T21:43:26;-11160.47;;;-3.47;38.97
13954;BME280;7049;49.444;8.522;2023-06-10T21:48:28;-11160.47;;;-3.47;38.66
13954;BME280;7049;49.444;8.522;2023-06-10T21:53:30;-11160.47;;;-3.47;38.71
13954;BME280;7049;49.444;8.522;2023-06-10T21:58:32;-11160.47;;;-3.47;38.75
13954;BME280;7049;49.444;8.522;2023-06-10T22:03:33;-11160.47;;;-3.47;38.91
13954;BME280;7049;49.444;8.522;2023-06-10T22:08:36;-11160.47;;;-3.47;39.14
13954;BME280;7049;49.444;8.522;2023-06-10T22:13:38;-11160.47;;;-3.47;39.00
13954;BME280;7049;49.444;8.522;2023-06-10T22:18:39;-11160.47;;;-3.47;38.84
13954;BME280;7049;49.444;8.522;2023-06-10T22:23:42;-11160.47;;;-3.47;38.59
13954;BME280;7049;49.444;8.522;2023-06-10T22:28:44;-11160.47;;;-3.47;38.76
13954;BME280;7049;49.444;8.522;2023-06-10T22:33:45;-11160.47;;;-3.47;38.62
13954;BME280;7049;49.444;8.522;2023-06-10T22:38:48;-11160.47;;;-3.47;38.52
13954;BME280;7049;49.444;8.522;2023-06-10T22:43:49;-11160.47;;;-3.47;38.55
13954;BME280;7049;49.444;8.522;2023-06-10T22:48:51;-11160.47;;;-3.47;38.63
13954;BME280;7049;49.444;8.522;2023-06-10T22:53:54;-11160.47;;;-3.47;38.94
13954;BME280;7049;49.444;8.522;2023-06-10T22:58:56;-11160.47;;;-3.47;38.97
13954;BME280;7049;49.444;8.522;2023-06-10T23:04:02;-11160.47;;;-3.47;39.38
13954;BME280;7049;49.444;8.522;2023-06-10T23:09:05;-11160.47;;;-3.47;39.24
13954;BME280;7049;49.444;8.522;2023-06-10T23:14:07;-11160.47;;;-3.47;39.62
13954;BME280;7049;49.444;8.522;2023-06-10T23:19:09;-11160.47;;;-3.47;39.70
13954;BME280;7049;49.444;8.522;2023-06-10T23:24:13;-11160.47;;;-3.47;39.81
13954;BME280;7049;49.444;8.522;2023-06-10T23:29:16;-11160.47;;;-3.47;40.13
13954;BME280;7049;49.444;8.522;2023-06-10T23:34:18;-11160.47;;;-3.47;40.44
13954;BME280;7049;49.444;8.522;2023-06-10T23:39:21;-11160.47;;;-3.47;40.58
13954;BME280;7049;49.444;8.522;2023-06-10T23:44:23;-11160.47;;;-3.47;40.78
13954;BME280;7049;49.444;8.522;2023-06-10T23:49:24;-11160.47;;;-3.47;41.27
13954;BME280;7049;49.444;8.522;2023-06-10T23:54:27;-11160.47;;;-3.47;41.62
13954;BME280;7049;49.444;8.522;2023-06-10T23:59:28;-11160.47;;;-3.47;41.69
